sensor_id;sensor_type;location;lat;lon;timestamp;temperature;humidity
2657;DHT22;1338;48.176;11.792;2023-05-07T00:02:11;10.20;99.90
2657;DHT22;1338;48.176;11.792;2023-05-07T00:04:40;10.00;99.90
2657;DHT22;1338;48.176;11.792;2023-05-07T00:07:08;10.10;99.90
2657;DHT22;1338;48.176;11.792;2023-05-07T00:09:36;10.10;99.90
2657;DHT22;1338;48.176;11.792;2023-05-07T00:12:05;10.10;99.90
2657;DHT22;1338;48.176;11.792;2023-05-07T00:14:33;10.00;99.90
2657;DHT22;1338;48.176;11.792;2023-05-07T00:17:01;9.90;99.90
2657;DHT22;1338;48.176;11.792;2023-05-07T00:19:29;10.00;99.90
2657;DHT22;1338;48.176;11.792;2023-05-07T00:22:01;9.80;99.90
2657;DHT22;1338;48.176;11.792;2023-05-07T00:24:29;9.80;99.90
2657;DHT22;1338;48.176;11.792;2023-05-07T00:26:57;9.70;99.90
2657;DHT22;1338;48.176;11.792;2023-05-07T00:29:25;9.70;99.90
2657;DHT22;1338;48.176;11.792;2023-05-07T00:31:53;9.70;99.90
2657;DHT22;1338;48.176;11.792;2023-05-07T00:34:21;9.50;99.90
2657;DHT22;1338;48.176;11.792;2023-05-07T00:36:50;9.50;99.90
2657;DHT22;1338;48.176;11.792;2023-05-07T00:39:19;9.70;1.00
2657;DHT22;1338;48.176;11.792;2023-05-07T00:41:47;9.60;1.00
2657;DHT22;1338;48.176;11.792;2023-05-07T00:44:15;9.60;1.00
2657;DHT22;1338;48.176;11.792;2023-05-07T00:46:44;9.60;1.00
2657;DHT22;1338;48.176;11.792;2023-05-07T00:49:15;9.60;1.00
2657;DHT22;1338;48.176;11.792;2023-05-07T00:51:44;9.60;99.90
2657;DHT22;1338;48.176;11.792;2023-05-07T00:54:13;9.60;1.00
2657;DHT22;1338;48.176;11.792;2023-05-07T00:56:42;9.70;1.00
2657;DHT22;1338;48.176;11.792;2023-05-07T00:59:11;9.60;1.00
2657;DHT22;1338;48.176;11.792;2023-05-07T01:01:39;9.50;1.00
2657;DHT22;1338;48.176;11.792;2023-05-07T01:04:08;9.50;1.00
2657;DHT22;1338;48.176;11.792;2023-05-07T01:06:37;9.40;1.00
2657;DHT22;1338;48.176;11.792;2023-05-07T01:09:07;9.30;1.00
2657;DHT22;1338;48.176;11.792;2023-05-07T01:11:35;9.10;1.00
2657;DHT22;1338;48.176;11.792;2023-05-07T01:14:05;9.10;1.00
2657;DHT22;1338;48.176;11.792;2023-05-07T01:16:34;9.10;1.00
2657;DHT22;1338;48.176;11.792;2023-05-07T01:19:03;9.50;1.00
2657;DHT22;1338;48.176;11.792;2023-05-07T01:21:33;9.50;1.00
2657;DHT22;1338;48.176;11.792;2023-05-07T01:24:06;9.40;1.00
2657;DHT22;1338;48.176;11.792;2023-05-07T01:26:34;9.30;1.00
2657;DHT22;1338;48.176;11.792;2023-05-07T01:29:02;9.30;1.00
2657;DHT22;1338;48.176;11.792;2023-05-07T01:31:30;9.30;1.00
2657;DHT22;1338;48.176;11.792;2023-05-07T01:34:01;9.30;1.00
2657;DHT22;1338;48.176;11.792;2023-05-07T01:36:30;9.30;1.00
2657;DHT22;1338;48.176;11.792;2023-05-07T01:38:59;9.30;1.00
2657;DHT22;1338;48.176;11.792;2023-05-07T01:41:28;9.20;1.00
2657;DHT22;1338;48.176;11.792;2023-05-07T01:43:58;9.30;1.00
2657;DHT22;1338;48.176;11.792;2023-05-07T01:46:27;9.40;1.00
2657;DHT22;1338;48.176;11.792;2023-05-07T01:48:55;9.40;1.00
2657;DHT22;1338;48.176;11.792;2023-05-07T01:51:23;9.50;1.00
2657;DHT22;1338;48.176;11.792;2023-05-07T01:53:52;9.50;1.00
2657;DHT22;1338;48.176;11.792;2023-05-07T01:56:20;9.50;1.00
2657;DHT22;1338;48.176;11.792;2023-05-07T01:58:50;9.40;1.00
2657;DHT22;1338;48.176;11.792;2023-05-07T02:01:19;9.50;1.00
2657;DHT22;1338;48.176;11.792;2023-05-07T02:03:48;9.50;1.00
2657;DHT22;1338;48.176;11.792;2023-05-07T02:06:22;9.50;1.00
2657;DHT22;1338;48.176;11.792;2023-05-07T02:08:54;9.40;1.00
2657;DHT22;1338;48.176;11.792;2023-05-07T02:11:22;9.40;1.00
2657;DHT22;1338;48.176;11.792;2023-05-07T02:13:53;9.50;1.00
2657;DHT22;1338;48.176;11.792;2023-05-07T02:16:21;9.60;1.00
2657;DHT22;1338;48.176;11.792;2023-05-07T02:18:51;9.50;1.00
2657;DHT22;1338;48.176;11.792;2023-05-07T02:21:19;9.60;1.00
2657;DHT22;1338;48.176;11.792;2023-05-07T02:23:47;9.60;1.00
2657;DHT22;1338;48.176;11.792;2023-05-07T02:26:15;9.50;1.00
2657;DHT22;1338;48.176;11.792;2023-05-07T02:28:44;9.40;1.00
2657;DHT22;1338;48.176;11.792;2023-05-07T02:31:13;9.40;1.00
2657;DHT22;1338;48.176;11.792;2023-05-07T02:33:42;9.30;1.00
2657;DHT22;1338;48.176;11.792;2023-05-07T02:36:11;9.30;1.00
2657;DHT22;1338;48.176;11.792;2023-05-07T02:38:45;9.40;1.00
2657;DHT22;1338;48.176;11.792;2023-05-07T02:41:14;9.40;1.00
2657;DHT22;1338;48.176;11.792;2023-05-07T02:43:42;9.30;1.00
2657;DHT22;1338;48.176;11.792;2023-05-07T02:46:11;9.30;1.00
2657;DHT22;1338;48.176;11.792;2023-05-07T02:48:45;9.10;1.00
2657;DHT22;1338;48.176;11.792;2023-05-07T02:51:14;9.20;1.00
2657;DHT22;1338;48.176;11.792;2023-05-07T02:53:42;9.10;1.00
2657;DHT22;1338;48.176;11.792;2023-05-07T02:56:10;9.10;1.00
2657;DHT22;1338;48.176;11.792;2023-05-07T02:58:38;9.00;1.00
2657;DHT22;1338;48.176;11.792;2023-05-07T03:01:08;8.90;1.00
2657;DHT22;1338;48.176;11.792;2023-05-07T03:03:53;9.00;1.00
2657;DHT22;1338;48.176;11.792;2023-05-07T03:06:21;9.10;1.00
2657;DHT22;1338;48.176;11.792;2023-05-07T03:08:49;9.00;1.00
2657;DHT22;1338;48.176;11.792;2023-05-07T03:11:17;9.00;1.00
2657;DHT22;1338;48.176;11.792;2023-05-07T03:13:46;9.00;1.00
2657;DHT22;1338;48.176;11.792;2023-05-07T03:16:16;8.80;1.00
2657;DHT22;1338;48.176;11.792;2023-05-07T03:18:45;8.80;1.00
2657;DHT22;1338;48.176;11.792;2023-05-07T03:21:14;8.90;1.00
2657;DHT22;1338;48.176;11.792;2023-05-07T03:23:43;8.70;1.00
2657;DHT22;1338;48.176;11.792;2023-05-07T03:26:11;8.70;1.00
2657;DHT22;1338;48.176;11.792;2023-05-07T03:28:40;8.70;1.00
2657;DHT22;1338;48.176;11.792;2023-05-07T03:31:12;8.60;1.00
2657;DHT22;1338;48.176;11.792;2023-05-07T03:33:50;8.70;1.00
2657;DHT22;1338;48.176;11.792;2023-05-07T03:36:20;8.70;1.00
2657;DHT22;1338;48.176;11.792;2023-05-07T03:38:49;8.60;1.00
2657;DHT22;1338;48.176;11.792;2023-05-07T03:41:20;8.50;1.00
2657;DHT22;1338;48.176;11.792;2023-05-07T03:43:48;8.60;1.00
2657;DHT22;1338;48.176;11.792;2023-05-07T03:46:16;8.60;1.00
2657;DHT22;1338;48.176;11.792;2023-05-07T03:48:44;8.70;1.00
2657;DHT22;1338;48.176;11.792;2023-05-07T03:51:14;8.70;1.00
2657;DHT22;1338;48.176;11.792;2023-05-07T03:53:43;8.80;1.00
2657;DHT22;1338;48.176;11.792;2023-05-07T03:56:11;8.70;1.00
2657;DHT22;1338;48.176;11.792;2023-05-07T03:58:40;8.50;1.00
2657;DHT22;1338;48.176;11.792;2023-05-07T04:01:10;8.50;1.00
2657;DHT22;1338;48.176;11.792;2023-05-07T04:03:39;8.60;1.00
2657;DHT22;1338;48.176;11.792;2023-05-07T04:06:07;8.70;1.00
2657;DHT22;1338;48.176;11.792;2023-05-07T04:08:36;8.70;1.00
2657;DHT22;1338;48.176;11.792;2023-05-07T04:11:06;8.60;1.00
2657;DHT22;1338;48.176;11.792;2023-05-07T04:13:36;8.60;1.00
2657;DHT22;1338;48.176;11.792;2023-05-07T04:16:06;8.60;1.00
2657;DHT22;1338;48.176;11.792;2023-05-07T04:18:37;8.60;1.00
2657;DHT22;1338;48.176;11.792;2023-05-07T04:21:05;8.50;1.00
2657;DHT22;1338;48.176;11.792;2023-05-07T04:23:36;8.40;1.00
2657;DHT22;1338;48.176;11.792;2023-05-07T04:26:09;8.60;1.00
2657;DHT22;1338;48.176;11.792;2023-05-07T04:28:41;8.70;1.00
2657;DHT22;1338;48.176;11.792;2023-05-07T04:31:09;8.50;1.00
2657;DHT22;1338;48.176;11.792;2023-05-07T04:33:38;8.40;1.00
2657;DHT22;1338;48.176;11.792;2023-05-07T04:36:10;8.40;1.00
2657;DHT22;1338;48.176;11.792;2023-05-07T04:38:48;8.60;1.00
2657;DHT22;1338;48.176;11.792;2023-05-07T04:41:19;8.70;1.00
2657;DHT22;1338;48.176;11.792;2023-05-07T04:43:47;8.80;1.00
2657;DHT22;1338;48.176;11.792;2023-05-07T04:46:17;8.90;1.00
2657;DHT22;1338;48.176;11.792;2023-05-07T04:48:48;9.10;1.00
2657;DHT22;1338;48.176;11.792;2023-05-07T04:51:16;9.20;1.00
2657;DHT22;1338;48.176;11.792;2023-05-07T04:53:44;9.30;1.00
2657;DHT22;1338;48.176;11.792;2023-05-07T04:56:12;9.50;1.00
2657;DHT22;1338;48.176;11.792;2023-05-07T04:58:44;9.70;1.00
2657;DHT22;1338;48.176;11.792;2023-05-07T05:01:13;9.80;1.00
2657;DHT22;1338;48.176;11.792;2023-05-07T05:03:42;9.90;1.00
2657;DHT22;1338;48.176;11.792;2023-05-07T05:06:11;10.00;1.00
2657;DHT22;1338;48.176;11.792;2023-05-07T05:08:40;10.00;1.00
2657;DHT22;1338;48.176;11.792;2023-05-07T05:11:09;10.10;1.00
2657;DHT22;1338;48.176;11.792;2023-05-07T05:13:38;10.30;99.90
2657;DHT22;1338;48.176;11.792;2023-05-07T05:16:16;10.30;99.90
2657;DHT22;1338;48.176;11.792;2023-05-07T05:18:45;10.40;99.90
2657;DHT22;1338;48.176;11.792;2023-05-07T05:21:16;10.70;56.00
2657;DHT22;1338;48.176;11.792;2023-05-07T05:23:46;10.80;2.70
2657;DHT22;1338;48.176;11.792;2023-05-07T05:26:19;10.90;1.40
2657;DHT22;1338;48.176;11.792;2023-05-07T05:28:48;10.90;11.90
2657;DHT22;1338;48.176;11.792;2023-05-07T05:31:20;11.00;1.00
2657;DHT22;1338;48.176;11.792;2023-05-07T05:33:50;11.00;1.00
2657;DHT22;1338;48.176;11.792;2023-05-07T05:36:18;11.20;1.00
2657;DHT22;1338;48.176;11.792;2023-05-07T05:38:47;11.40;1.00
2657;DHT22;1338;48.176;11.792;2023-05-07T05:41:15;11.60;1.00
2657;DHT22;1338;48.176;11.792;2023-05-07T05:43:44;11.60;1.00
2657;DHT22;1338;48.176;11.792;2023-05-07T05:46:12;11.70;1.00
2657;DHT22;1338;48.176;11.792;2023-05-07T05:48:41;11.70;1.00
2657;DHT22;1338;48.176;11.792;2023-05-07T05:51:10;11.70;1.00
2657;DHT22;1338;48.176;11.792;2023-05-07T05:53:38;11.90;1.00
2657;DHT22;1338;48.176;11.792;2023-05-07T05:56:07;12.10;1.00
2657;DHT22;1338;48.176;11.792;2023-05-07T05:58:37;12.30;1.00
2657;DHT22;1338;48.176;11.792;2023-05-07T06:01:07;12.40;1.00
2657;DHT22;1338;48.176;11.792;2023-05-07T06:03:37;12.40;1.00
2657;DHT22;1338;48.176;11.792;2023-05-07T06:06:13;12.80;99.90
2657;DHT22;1338;48.176;11.792;2023-05-07T06:08:43;12.70;99.90
2657;DHT22;1338;48.176;11.792;2023-05-07T06:11:14;12.90;99.90
2657;DHT22;1338;48.176;11.792;2023-05-07T06:13:45;13.10;99.90
2657;DHT22;1338;48.176;11.792;2023-05-07T06:16:14;13.00;99.90
2657;DHT22;1338;48.176;11.792;2023-05-07T06:18:42;13.00;99.90
2657;DHT22;1338;48.176;11.792;2023-05-07T06:21:15;13.00;99.90
2657;DHT22;1338;48.176;11.792;2023-05-07T06:23:43;13.20;99.90
2657;DHT22;1338;48.176;11.792;2023-05-07T06:26:11;13.20;99.90
2657;DHT22;1338;48.176;11.792;2023-05-07T06:28:42;13.50;99.90
2657;DHT22;1338;48.176;11.792;2023-05-07T06:31:13;13.70;99.90
2657;DHT22;1338;48.176;11.792;2023-05-07T06:33:47;13.80;1.00
2657;DHT22;1338;48.176;11.792;2023-05-07T06:36:17;13.90;99.90
2657;DHT22;1338;48.176;11.792;2023-05-07T06:38:46;14.10;1.00
2657;DHT22;1338;48.176;11.792;2023-05-07T06:41:14;14.30;1.00
2657;DHT22;1338;48.176;11.792;2023-05-07T06:43:43;14.40;1.00
2657;DHT22;1338;48.176;11.792;2023-05-07T06:46:30;14.40;1.00
2657;DHT22;1338;48.176;11.792;2023-05-07T06:48:58;14.50;1.00
2657;DHT22;1338;48.176;11.792;2023-05-07T06:51:28;14.70;1.00
2657;DHT22;1338;48.176;11.792;2023-05-07T06:54:01;14.70;1.00
2657;DHT22;1338;48.176;11.792;2023-05-07T06:56:32;14.80;1.00
2657;DHT22;1338;48.176;11.792;2023-05-07T06:59:01;14.90;1.00
2657;DHT22;1338;48.176;11.792;2023-05-07T07:01:34;15.10;1.00
2657;DHT22;1338;48.176;11.792;2023-05-07T07:04:03;15.10;1.00
2657;DHT22;1338;48.176;11.792;2023-05-07T07:06:33;15.30;1.00
2657;DHT22;1338;48.176;11.792;2023-05-07T07:09:06;15.30;1.00
2657;DHT22;1338;48.176;11.792;2023-05-07T07:11:35;15.30;1.00
2657;DHT22;1338;48.176;11.792;2023-05-07T07:14:04;15.50;1.00
2657;DHT22;1338;48.176;11.792;2023-05-07T07:16:37;15.70;1.00
2657;DHT22;1338;48.176;11.792;2023-05-07T07:19:05;15.70;1.00
2657;DHT22;1338;48.176;11.792;2023-05-07T07:21:35;15.80;1.00
2657;DHT22;1338;48.176;11.792;2023-05-07T07:24:03;15.80;1.00
2657;DHT22;1338;48.176;11.792;2023-05-07T07:26:31;16.10;1.00
2657;DHT22;1338;48.176;11.792;2023-05-07T07:29:00;16.00;1.00
2657;DHT22;1338;48.176;11.792;2023-05-07T07:31:28;16.30;1.00
2657;DHT22;1338;48.176;11.792;2023-05-07T07:33:58;16.40;1.00
2657;DHT22;1338;48.176;11.792;2023-05-07T07:36:26;16.60;1.00
2657;DHT22;1338;48.176;11.792;2023-05-07T07:39:13;16.60;1.00
2657;DHT22;1338;48.176;11.792;2023-05-07T07:41:42;16.60;1.00
2657;DHT22;1338;48.176;11.792;2023-05-07T07:44:11;16.60;1.00
2657;DHT22;1338;48.176;11.792;2023-05-07T07:46:44;16.70;1.00
2657;DHT22;1338;48.176;11.792;2023-05-07T07:49:13;16.90;1.00
2657;DHT22;1338;48.176;11.792;2023-05-07T07:51:41;17.00;1.00
2657;DHT22;1338;48.176;11.792;2023-05-07T07:54:12;16.90;1.00
2657;DHT22;1338;48.176;11.792;2023-05-07T07:56:41;16.90;1.00
2657;DHT22;1338;48.176;11.792;2023-05-07T07:59:10;17.10;1.00
2657;DHT22;1338;48.176;11.792;2023-05-07T08:01:40;17.10;1.00
2657;DHT22;1338;48.176;11.792;2023-05-07T08:04:09;17.10;1.00
2657;DHT22;1338;48.176;11.792;2023-05-07T08:06:40;17.10;1.00
2657;DHT22;1338;48.176;11.792;2023-05-07T08:09:09;17.30;1.00
2657;DHT22;1338;48.176;11.792;2023-05-07T08:11:41;17.50;1.00
2657;DHT22;1338;48.176;11.792;2023-05-07T08:14:10;17.90;1.00
2657;DHT22;1338;48.176;11.792;2023-05-07T08:16:39;17.90;1.00
2657;DHT22;1338;48.176;11.792;2023-05-07T08:19:07;17.90;1.00
2657;DHT22;1338;48.176;11.792;2023-05-07T08:21:38;18.40;1.00
2657;DHT22;1338;48.176;11.792;2023-05-07T08:24:09;18.00;1.00
2657;DHT22;1338;48.176;11.792;2023-05-07T08:26:37;18.20;1.00
2657;DHT22;1338;48.176;11.792;2023-05-07T08:29:08;18.00;1.00
2657;DHT22;1338;48.176;11.792;2023-05-07T08:31:36;18.10;1.00
2657;DHT22;1338;48.176;11.792;2023-05-07T08:34:05;18.00;1.00
2657;DHT22;1338;48.176;11.792;2023-05-07T08:36:39;18.20;1.00
2657;DHT22;1338;48.176;11.792;2023-05-07T08:39:09;18.40;1.00
2657;DHT22;1338;48.176;11.792;2023-05-07T08:41:37;18.70;99.90
2657;DHT22;1338;48.176;11.792;2023-05-07T08:44:13;19.00;99.90
2657;DHT22;1338;48.176;11.792;2023-05-07T08:46:42;18.90;99.90
2657;DHT22;1338;48.176;11.792;2023-05-07T08:49:14;18.60;99.90
2657;DHT22;1338;48.176;11.792;2023-05-07T08:51:43;18.30;99.90
2657;DHT22;1338;48.176;11.792;2023-05-07T08:54:15;19.00;99.90
2657;DHT22;1338;48.176;11.792;2023-05-07T08:56:45;18.70;99.90
2657;DHT22;1338;48.176;11.792;2023-05-07T08:59:14;18.90;99.90
2657;DHT22;1338;48.176;11.792;2023-05-07T09:01:44;19.10;99.90
2657;DHT22;1338;48.176;11.792;2023-05-07T09:04:13;19.30;99.90
2657;DHT22;1338;48.176;11.792;2023-05-07T09:06:42;19.00;99.90
2657;DHT22;1338;48.176;11.792;2023-05-07T09:09:14;19.40;99.90
2657;DHT22;1338;48.176;11.792;2023-05-07T09:11:45;19.30;99.90
2657;DHT22;1338;48.176;11.792;2023-05-07T09:14:21;19.60;99.90
2657;DHT22;1338;48.176;11.792;2023-05-07T09:16:52;19.80;99.90
2657;DHT22;1338;48.176;11.792;2023-05-07T09:19:22;19.30;99.90
2657;DHT22;1338;48.176;11.792;2023-05-07T09:21:58;19.40;99.90
2657;DHT22;1338;48.176;11.792;2023-05-07T09:24:30;19.90;99.90
2657;DHT22;1338;48.176;11.792;2023-05-07T09:27:03;19.40;99.90
2657;DHT22;1338;48.176;11.792;2023-05-07T09:29:34;19.70;99.90
2657;DHT22;1338;48.176;11.792;2023-05-07T09:32:05;19.60;99.90
2657;DHT22;1338;48.176;11.792;2023-05-07T09:34:35;20.20;99.90
2657;DHT22;1338;48.176;11.792;2023-05-07T09:37:06;20.10;99.90
2657;DHT22;1338;48.176;11.792;2023-05-07T09:39:41;20.00;99.90
2657;DHT22;1338;48.176;11.792;2023-05-07T09:42:11;20.40;99.90
2657;DHT22;1338;48.176;11.792;2023-05-07T09:44:41;20.50;99.90
2657;DHT22;1338;48.176;11.792;2023-05-07T09:47:18;20.30;99.90
2657;DHT22;1338;48.176;11.792;2023-05-07T09:49:55;20.30;99.90
2657;DHT22;1338;48.176;11.792;2023-05-07T09:52:24;20.40;99.90
2657;DHT22;1338;48.176;11.792;2023-05-07T09:54:57;20.60;99.90
2657;DHT22;1338;48.176;11.792;2023-05-07T09:57:29;20.60;99.90
2657;DHT22;1338;48.176;11.792;2023-05-07T10:00:03;20.80;99.90
2657;DHT22;1338;48.176;11.792;2023-05-07T10:02:47;20.20;99.90
2657;DHT22;1338;48.176;11.792;2023-05-07T10:05:19;20.00;99.90
2657;DHT22;1338;48.176;11.792;2023-05-07T10:07:49;20.70;99.90
2657;DHT22;1338;48.176;11.792;2023-05-07T10:10:20;20.40;99.90
2657;DHT22;1338;48.176;11.792;2023-05-07T10:12:49;20.70;99.90
2657;DHT22;1338;48.176;11.792;2023-05-07T10:15:29;20.80;99.90
2657;DHT22;1338;48.176;11.792;2023-05-07T10:17:59;21.40;99.90
2657;DHT22;1338;48.176;11.792;2023-05-07T10:20:29;21.30;99.90
2657;DHT22;1338;48.176;11.792;2023-05-07T10:22:58;21.30;99.90
2657;DHT22;1338;48.176;11.792;2023-05-07T10:25:35;21.60;99.90
2657;DHT22;1338;48.176;11.792;2023-05-07T10:28:11;21.50;99.90
2657;DHT22;1338;48.176;11.792;2023-05-07T10:30:53;21.00;99.90
2657;DHT22;1338;48.176;11.792;2023-05-07T10:33:34;21.20;99.90
2657;DHT22;1338;48.176;11.792;2023-05-07T10:36:05;21.00;99.90
2657;DHT22;1338;48.176;11.792;2023-05-07T10:38:35;21.40;99.90
2657;DHT22;1338;48.176;11.792;2023-05-07T10:41:04;21.70;99.90
2657;DHT22;1338;48.176;11.792;2023-05-07T10:43:40;21.50;99.90
2657;DHT22;1338;48.176;11.792;2023-05-07T10:46:18;21.70;99.90
2657;DHT22;1338;48.176;11.792;2023-05-07T10:49:09;21.60;99.90
2657;DHT22;1338;48.176;11.792;2023-05-07T10:52:14;21.90;99.90
2657;DHT22;1338;48.176;11.792;2023-05-07T10:55:19;21.60;99.90
2657;DHT22;1338;48.176;11.792;2023-05-07T10:58:27;21.50;99.90
2657;DHT22;1338;48.176;11.792;2023-05-07T11:01:52;21.90;99.90
2657;DHT22;1338;48.176;11.792;2023-05-07T11:04:34;22.00;99.90
2657;DHT22;1338;48.176;11.792;2023-05-07T11:07:29;21.90;99.90
2657;DHT22;1338;48.176;11.792;2023-05-07T11:10:07;22.10;99.90
2657;DHT22;1338;48.176;11.792;2023-05-07T11:13:03;22.10;99.90
2657;DHT22;1338;48.176;11.792;2023-05-07T11:15:44;22.10;99.90
2657;DHT22;1338;48.176;11.792;2023-05-07T11:18:46;22.10;99.90
2657;DHT22;1338;48.176;11.792;2023-05-07T11:21:32;22.30;99.90
2657;DHT22;1338;48.176;11.792;2023-05-07T11:24:08;22.30;99.90
2657;DHT22;1338;48.176;11.792;2023-05-07T11:26:47;22.90;99.90
2657;DHT22;1338;48.176;11.792;2023-05-07T11:29:19;22.70;99.90
2657;DHT22;1338;48.176;11.792;2023-05-07T11:31:54;22.70;99.90
2657;DHT22;1338;48.176;11.792;2023-05-07T11:34:30;22.70;99.90
2657;DHT22;1338;48.176;11.792;2023-05-07T11:36:59;22.80;99.90
2657;DHT22;1338;48.176;11.792;2023-05-07T11:39:46;22.30;99.90
2657;DHT22;1338;48.176;11.792;2023-05-07T11:42:27;22.70;99.90
2657;DHT22;1338;48.176;11.792;2023-05-07T11:44:56;22.70;99.90
2657;DHT22;1338;48.176;11.792;2023-05-07T11:47:24;22.80;99.90
2657;DHT22;1338;48.176;11.792;2023-05-07T11:49:54;23.10;99.90
2657;DHT22;1338;48.176;11.792;2023-05-07T11:52:24;22.70;99.50
2657;DHT22;1338;48.176;11.792;2023-05-07T11:54:53;23.50;89.40
2657;DHT22;1338;48.176;11.792;2023-05-07T11:57:23;22.90;85.60
2657;DHT22;1338;48.176;11.792;2023-05-07T11:59:53;23.10;92.00
2657;DHT22;1338;48.176;11.792;2023-05-07T12:02:21;23.20;83.50
2657;DHT22;1338;48.176;11.792;2023-05-07T12:04:53;23.10;82.60
2657;DHT22;1338;48.176;11.792;2023-05-07T12:07:24;23.60;68.10
2657;DHT22;1338;48.176;11.792;2023-05-07T12:09:53;23.70;72.00
2657;DHT22;1338;48.176;11.792;2023-05-07T12:12:21;23.70;55.00
2657;DHT22;1338;48.176;11.792;2023-05-07T12:14:49;23.40;58.20
2657;DHT22;1338;48.176;11.792;2023-05-07T12:17:17;23.50;48.20
2657;DHT22;1338;48.176;11.792;2023-05-07T12:19:46;23.30;51.90
2657;DHT22;1338;48.176;11.792;2023-05-07T12:22:16;23.70;42.70
2657;DHT22;1338;48.176;11.792;2023-05-07T12:24:45;23.90;30.70
2657;DHT22;1338;48.176;11.792;2023-05-07T12:27:13;23.60;27.30
2657;DHT22;1338;48.176;11.792;2023-05-07T12:29:44;23.90;25.30
2657;DHT22;1338;48.176;11.792;2023-05-07T12:32:13;24.00;13.30
2657;DHT22;1338;48.176;11.792;2023-05-07T12:34:42;23.70;8.80
2657;DHT22;1338;48.176;11.792;2023-05-07T12:37:11;23.70;1.00
2657;DHT22;1338;48.176;11.792;2023-05-07T12:39:47;23.70;1.00
2657;DHT22;1338;48.176;11.792;2023-05-07T12:42:16;23.50;1.00
2657;DHT22;1338;48.176;11.792;2023-05-07T12:44:50;23.80;1.00
2657;DHT22;1338;48.176;11.792;2023-05-07T12:47:19;23.70;1.00
2657;DHT22;1338;48.176;11.792;2023-05-07T12:49:48;23.80;1.00
2657;DHT22;1338;48.176;11.792;2023-05-07T12:52:16;23.90;1.00
2657;DHT22;1338;48.176;11.792;2023-05-07T12:54:45;23.50;1.00
2657;DHT22;1338;48.176;11.792;2023-05-07T12:57:19;23.90;1.00
2657;DHT22;1338;48.176;11.792;2023-05-07T12:59:48;23.60;1.00
2657;DHT22;1338;48.176;11.792;2023-05-07T13:02:16;23.30;1.00
2657;DHT22;1338;48.176;11.792;2023-05-07T13:04:44;25.00;1.00
2657;DHT22;1338;48.176;11.792;2023-05-07T13:07:12;24.80;1.00
2657;DHT22;1338;48.176;11.792;2023-05-07T13:09:40;24.20;1.00
2657;DHT22;1338;48.176;11.792;2023-05-07T13:12:10;24.30;1.00
2657;DHT22;1338;48.176;11.792;2023-05-07T13:14:38;23.90;1.00
2657;DHT22;1338;48.176;11.792;2023-05-07T13:17:06;23.40;1.00
2657;DHT22;1338;48.176;11.792;2023-05-07T13:19:34;23.50;1.00
2657;DHT22;1338;48.176;11.792;2023-05-07T13:22:04;24.10;1.00
2657;DHT22;1338;48.176;11.792;2023-05-07T13:24:32;24.90;1.00
2657;DHT22;1338;48.176;11.792;2023-05-07T13:27:00;24.40;1.00
2657;DHT22;1338;48.176;11.792;2023-05-07T13:29:29;25.20;1.00
2657;DHT22;1338;48.176;11.792;2023-05-07T13:31:58;25.00;1.00
2657;DHT22;1338;48.176;11.792;2023-05-07T13:34:28;25.50;1.00
2657;DHT22;1338;48.176;11.792;2023-05-07T13:36:56;25.30;1.00
2657;DHT22;1338;48.176;11.792;2023-05-07T13:39:24;25.40;1.00
2657;DHT22;1338;48.176;11.792;2023-05-07T13:41:52;24.80;1.00
2657;DHT22;1338;48.176;11.792;2023-05-07T13:44:20;24.80;1.00
2657;DHT22;1338;48.176;11.792;2023-05-07T13:46:50;25.40;1.00
2657;DHT22;1338;48.176;11.792;2023-05-07T13:49:18;25.30;1.00
2657;DHT22;1338;48.176;11.792;2023-05-07T13:51:46;25.30;1.00
2657;DHT22;1338;48.176;11.792;2023-05-07T13:54:14;25.20;1.00
2657;DHT22;1338;48.176;11.792;2023-05-07T13:56:42;24.80;1.00
2657;DHT22;1338;48.176;11.792;2023-05-07T13:59:10;25.40;1.00
2657;DHT22;1338;48.176;11.792;2023-05-07T14:01:41;24.90;1.00
2657;DHT22;1338;48.176;11.792;2023-05-07T14:04:10;24.80;1.00
2657;DHT22;1338;48.176;11.792;2023-05-07T14:06:38;25.00;1.00
2657;DHT22;1338;48.176;11.792;2023-05-07T14:09:06;25.40;1.00
2657;DHT22;1338;48.176;11.792;2023-05-07T14:11:34;24.90;1.00
2657;DHT22;1338;48.176;11.792;2023-05-07T14:14:04;25.90;1.00
2657;DHT22;1338;48.176;11.792;2023-05-07T14:16:32;26.40;1.00
2657;DHT22;1338;48.176;11.792;2023-05-07T14:19:00;25.00;1.00
2657;DHT22;1338;48.176;11.792;2023-05-07T14:21:29;25.80;1.00
2657;DHT22;1338;48.176;11.792;2023-05-07T14:23:58;26.50;1.00
2657;DHT22;1338;48.176;11.792;2023-05-07T14:26:26;25.90;1.00
2657;DHT22;1338;48.176;11.792;2023-05-07T14:28:54;25.80;1.00
2657;DHT22;1338;48.176;11.792;2023-05-07T14:31:25;25.30;1.00
2657;DHT22;1338;48.176;11.792;2023-05-07T14:33:53;25.20;1.00
2657;DHT22;1338;48.176;11.792;2023-05-07T14:36:21;25.20;1.00
2657;DHT22;1338;48.176;11.792;2023-05-07T14:38:54;24.60;1.00
2657;DHT22;1338;48.176;11.792;2023-05-07T14:41:22;24.70;1.00
2657;DHT22;1338;48.176;11.792;2023-05-07T14:43:50;24.80;1.00
2657;DHT22;1338;48.176;11.792;2023-05-07T14:46:18;24.00;1.00
2657;DHT22;1338;48.176;11.792;2023-05-07T14:48:46;23.90;1.00
2657;DHT22;1338;48.176;11.792;2023-05-07T14:51:14;24.10;1.00
2657;DHT22;1338;48.176;11.792;2023-05-07T14:53:42;24.60;1.00
2657;DHT22;1338;48.176;11.792;2023-05-07T14:56:12;24.40;1.00
2657;DHT22;1338;48.176;11.792;2023-05-07T14:58:40;24.00;1.00
2657;DHT22;1338;48.176;11.792;2023-05-07T15:01:08;24.20;1.00
2657;DHT22;1338;48.176;11.792;2023-05-07T15:03:36;24.20;1.00
2657;DHT22;1338;48.176;11.792;2023-05-07T15:06:05;23.80;1.00
2657;DHT22;1338;48.176;11.792;2023-05-07T15:08:33;24.20;1.00
2657;DHT22;1338;48.176;11.792;2023-05-07T15:11:01;23.80;1.00
2657;DHT22;1338;48.176;11.792;2023-05-07T15:13:30;24.50;1.00
2657;DHT22;1338;48.176;11.792;2023-05-07T15:15:59;24.50;1.00
2657;DHT22;1338;48.176;11.792;2023-05-07T15:18:27;24.40;1.00
2657;DHT22;1338;48.176;11.792;2023-05-07T15:20:55;24.10;1.00
2657;DHT22;1338;48.176;11.792;2023-05-07T15:23:24;23.70;1.00
2657;DHT22;1338;48.176;11.792;2023-05-07T15:25:53;23.30;1.00
2657;DHT22;1338;48.176;11.792;2023-05-07T15:28:21;23.30;1.00
2657;DHT22;1338;48.176;11.792;2023-05-07T15:30:54;23.20;1.00
2657;DHT22;1338;48.176;11.792;2023-05-07T15:33:23;23.00;1.00
2657;DHT22;1338;48.176;11.792;2023-05-07T15:35:51;23.00;1.00
2657;DHT22;1338;48.176;11.792;2023-05-07T15:38:19;22.80;1.00
2657;DHT22;1338;48.176;11.792;2023-05-07T15:40:48;22.60;1.00
2657;DHT22;1338;48.176;11.792;2023-05-07T15:43:16;22.70;1.00
2657;DHT22;1338;48.176;11.792;2023-05-07T15:45:45;22.90;1.00
2657;DHT22;1338;48.176;11.792;2023-05-07T15:48:14;22.80;1.00
2657;DHT22;1338;48.176;11.792;2023-05-07T15:50:44;22.80;1.00
2657;DHT22;1338;48.176;11.792;2023-05-07T15:53:12;22.50;1.00
2657;DHT22;1338;48.176;11.792;2023-05-07T15:55:41;22.40;1.00
2657;DHT22;1338;48.176;11.792;2023-05-07T15:58:10;22.30;1.00
2657;DHT22;1338;48.176;11.792;2023-05-07T16:00:38;22.30;1.00
2657;DHT22;1338;48.176;11.792;2023-05-07T16:03:07;22.20;1.00
2657;DHT22;1338;48.176;11.792;2023-05-07T16:05:37;22.10;1.00
2657;DHT22;1338;48.176;11.792;2023-05-07T16:08:05;22.00;1.00
2657;DHT22;1338;48.176;11.792;2023-05-07T16:10:33;22.00;1.00
2657;DHT22;1338;48.176;11.792;2023-05-07T16:13:01;21.90;1.00
2657;DHT22;1338;48.176;11.792;2023-05-07T16:15:29;21.90;1.00
2657;DHT22;1338;48.176;11.792;2023-05-07T16:17:58;21.60;1.00
2657;DHT22;1338;48.176;11.792;2023-05-07T16:20:27;21.70;1.00
2657;DHT22;1338;48.176;11.792;2023-05-07T16:22:58;21.70;1.00
2657;DHT22;1338;48.176;11.792;2023-05-07T16:25:26;21.60;1.00